مشهد, ایران

02:32 PM +0430 on مارس 28, 2017 (GMT +0430)
Shahid Hashemi Nejad International | | Change Station

Elev 3245 ft 36.27 °N, 59.63 °E | Updated 32 minutes ago

Partly Cloudy
ابرهاى پراكنده
70 °F
Feels Like 70 °F
N
7
باد متغير باد from NNE

امروز
High -- | Low -- °F
--% Chance of Precip.
دیروز
High -- | Low -- °F
Precip. -- در
فشار 29.98 در
ديد 6.2 مايل، ميل (در برابر كيلومتر
ابری Few 3000 ft
Few 3500 ft
قطره شبنم 37 °F
رطوبت 31%
بارش باران 0.00 در
برف عمیق Not available.
6:23 AM 6:50 PM
ماه جدید, 0% visible
METAR OIMM 280930Z 03006KT 9999 FEW030 FEW035CB 21/03 Q1015 A2999
فشار 29.98 در
ديد 6.2 مايل، ميل (در برابر كيلومتر
ابری Few 3000 ft
Few 3500 ft
قطره شبنم 37 °F
رطوبت 31%
بارش باران 0.00 در
برف عمیق Not available.
6:23 AM 6:50 PM
ماه جدید, 0% visible
METAR OIMM 280930Z 03006KT 9999 FEW030 FEW035CB 21/03 Q1015 A2999

Get Severe Weather Alerts

Thanks for signing up!

Be on the lookout for a verification email in your inbox.

You'll start receiving the daily forecast at 8 AM.

×

10-Day Weather Forecast

No radar image for this location.
×

Almanac

ستاره شناسی

Mar. 28, 2017 Rise Set
وقت حقیقی
تاریک و روشن اجتماعی
تاریک روشن دریایی
شفق و فلق نجومی
ماه
میزان روشنایی روز
طول روز
Tomorrow will be .
, % of the Moon is Illuminated

Today's Extremes

Country Highs Country Lows

Community

WunderPhotos

Upload Photos

1,962,540 photos uploaded!

WunderBlog® & News

Nearby

تمیزی هوا

  تمیزی هوا AQ Index آلاینده
Not available.

عمق برف

Station Depth Elevation

Earthquake Activity

شهر Distance Mag. Time & Date
Minimum magnitude displayed is 2.5.

Earthquake Activity

شهر Distance Mag. Time & Date
Minimum magnitude displayed is 2.5.

Coastal Water Temperatures

منطقه درجه حرارت

Stations

Nearby Weather Stations

Station Location دما باد سرد قطره شبنم رطوبت باد Precip. Elev ارتقا دادن Type